Terminal Aerodrome Forecast
Issued by NWS Tuscon, AZ

Home | Current Version | Previous Version | Text Only | Print | Product List | Glossary On
Versions: 1 2 3 4 5 6 7 8 9 10 11 12 13 14 15 16
000
FTUS45 KTWC 041120
TAFTUS
TAF
KTUS 041120Z 0412/0512 17005KT P6SM FEW120 BKN200
     FM041800 VRB04KT P6SM VCSH SCT070 BKN120 OVC200
     FM042200 23006KT P6SM -SHRA SCT070 BKN120 OVC200
     FM050200 18005KT P6SM FEW070 BKN120 BKN200
     FM050500 14007KT P6SM SCT120 BKN200=

USA.gov is the U.S. government's official web portal to all federal, state and local government web resources and services.